Time;durP1;ratioP1;P1;durP2;ratioP2;P2;SDS_P1;SDS_P2;PMS_P1;PMS_P2;Temp;Humidity;BMP_temperature;BMP_pressure;BME280_temperature;BME280_humidity;BME280_pressure;Samples;Min_cycle;Max_cycle;Signal;HPM_P1;HPM_P2
2022/12/04 00:01:59;;;;;;;41.07;8.43;;;;;;;21.06;60.47;99654.44;7313517;19;129535;-38
2022/12/04 00:04:24;;;;;;;59.22;9.88;;;;;;;21.07;60.97;99655.28;7311283;19;128993;-32
2022/12/04 00:06:50;;;;;;;33.08;8.23;;;;;;;21.04;60.55;99658.97;7311934;19;130741;-35
2022/12/04 00:09:15;;;;;;;54.20;10.33;;;;;;;21.04;61.00;99658.16;7311087;19;129505;-35
2022/12/04 00:11:40;;;;;;;35.75;8.50;;;;;;;21.04;60.85;99666.00;7309450;19;129066;-37
2022/12/04 00:14:06;;;;;;;51.17;9.17;;;;;;;21.02;60.93;99658.28;7312234;19;130317;-36
2022/12/04 00:16:31;;;;;;;31.85;8.15;;;;;;;21.01;60.62;99661.03;7311833;19;129365;-33
2022/12/04 00:18:57;;;;;;;27.00;7.93;;;;;;;21.00;61.10;99660.22;7310310;19;128868;-35
2022/12/04 00:21:24;;;;;;;40.85;8.43;;;;;;;20.91;60.74;99654.94;7311127;19;128876;-34
2022/12/04 00:23:50;;;;;;;44.33;8.68;;;;;;;20.99;60.62;99662.97;7313790;19;129497;-33
2022/12/04 00:26:18;;;;;;;38.10;8.70;;;;;;;20.99;60.39;99657.72;7312312;19;130538;-35
2022/12/04 00:28:44;;;;;;;55.85;9.98;;;;;;;20.87;60.51;99640.47;7308722;19;129157;-35
2022/12/04 00:31:13;;;;;;;31.75;8.18;;;;;;;20.99;60.38;99666.38;7312012;19;129491;-36
2022/12/04 00:33:39;;;;;;;30.23;8.25;;;;;;;21.04;60.73;99656.34;7313198;19;130283;-34
2022/12/04 00:36:07;;;;;;;44.72;9.20;;;;;;;21.08;60.46;99652.53;7312300;19;129275;-37
2022/12/04 00:38:33;;;;;;;24.50;7.78;;;;;;;21.18;60.24;99657.75;7310187;19;129581;-35
2022/12/04 00:41:02;;;;;;;38.73;8.03;;;;;;;21.27;60.16;99655.16;7312352;19;129158;-35
2022/12/04 00:43:29;;;;;;;46.33;8.77;;;;;;;21.42;59.86;99651.16;7312392;19;130112;-33
2022/12/04 00:45:54;;;;;;;;;;;;;;;21.53;59.64;99653.69;7311061;19;130150;-37
2022/12/04 00:48:20;;;;;;;38.33;7.73;;;;;;;21.62;59.50;99649.38;7311390;19;129420;-33
2022/12/04 00:50:45;;;;;;;45.80;9.10;;;;;;;21.69;58.44;99650.47;7311265;19;128922;-38
2022/12/04 00:53:11;;;;;;;38.28;8.55;;;;;;;21.70;58.95;99655.56;7311617;19;130516;-33
2022/12/04 00:55:38;;;;;;;24.50;7.40;;;;;;;21.70;59.12;99658.19;7310243;19;129436;-36
2022/12/04 00:58:04;;;;;;;33.15;7.68;;;;;;;21.57;59.23;99643.72;7308446;19;129169;-36
2022/12/04 01:00:29;;;;;;;44.13;8.07;;;;;;;21.63;59.31;99645.81;7312827;19;128979;-35
2022/12/04 01:02:55;;;;;;;31.10;7.83;;;;;;;21.59;58.82;99647.88;7313580;19;129186;-36
2022/12/04 01:05:20;;;;;;;43.38;9.25;;;;;;;21.58;58.85;99648.84;7311636;19;129743;-34
2022/12/04 01:07:46;;;;;;;42.55;8.55;;;;;;;21.55;59.60;99651.72;7310606;19;129490;-38
2022/12/04 01:10:12;;;;;;;25.80;7.68;;;;;;;21.54;59.30;99649.25;7312142;19;129135;-38
2022/12/04 01:12:37;;;;;;;29.60;7.87;;;;;;;21.48;59.17;99642.78;7312605;19;130691;-36
2022/12/04 01:15:03;;;;;;;21.20;6.90;;;;;;;21.43;59.78;99644.16;7311310;19;129722;-37
2022/12/04 01:17:29;;;;;;;38.13;8.47;;;;;;;21.39;59.50;99641.00;7310033;19;129148;-32
2022/12/04 01:19:54;;;;;;;35.72;8.20;;;;;;;21.36;60.20;99635.19;7310904;19;128860;-36
2022/12/04 01:22:19;;;;;;;26.57;7.77;;;;;;;21.30;59.94;99630.53;7312260;19;129239;-35
2022/12/04 01:24:45;;;;;;;36.25;7.63;;;;;;;21.17;59.82;99627.34;7308694;19;129499;-37
2022/12/04 01:27:10;;;;;;;66.23;10.13;;;;;;;21.25;59.77;99633.56;7307641;19;130047;-38
2022/12/04 01:29:35;;;;;;;31.55;7.90;;;;;;;21.11;60.06;99618.25;7308849;19;130308;-36
2022/12/04 01:32:01;;;;;;;29.37;7.80;;;;;;;21.21;60.42;99632.16;7310828;19;129263;-36
2022/12/04 01:34:26;;;;;;;26.65;7.28;;;;;;;21.18;60.35;99640.28;7309003;19;129191;-38
2022/12/04 01:36:51;;;;;;;48.17;8.82;;;;;;;21.16;60.46;99634.38;7308731;19;128860;-37
2022/12/04 01:39:17;;;;;;;46.30;8.93;;;;;;;21.15;60.20;99622.28;7307201;19;128924;-36
2022/12/04 01:41:43;;;;;;;36.53;8.37;;;;;;;21.14;60.33;99631.06;7310494;19;129148;-35
2022/12/04 01:44:18;;;;;;;32.60;7.70;;;;;;;21.12;60.64;99627.75;7310849;19;129183;-35
2022/12/04 01:46:46;;;;;;;46.42;8.45;;;;;;;21.14;60.97;99625.03;7310209;19;129484;-36
2022/12/04 01:49:20;;;;;;;37.88;8.38;;;;;;;21.11;60.90;99620.88;7308978;19;129126;-34
2022/12/04 01:51:50;;;;;;;22.38;7.55;;;;;;;21.12;60.35;99612.06;7310683;19;129216;-38
2022/12/04 01:54:21;;;;;;;29.17;7.72;;;;;;;21.16;60.77;99602.16;7309456;19;129310;-34
2022/12/04 01:56:53;;;;;;;32.45;7.78;;;;;;;21.26;60.02;99593.38;7310157;19;129366;-35
2022/12/04 01:59:23;;;;;;;36.42;7.97;;;;;;;21.31;60.23;99600.78;7309653;19;129354;-33
2022/12/04 02:02:03;;;;;;;36.08;7.55;;;;;;;21.44;59.41;99602.16;7309241;19;130142;-33
2022/12/04 02:04:30;;;;;;;29.77;7.93;;;;;;;21.52;59.22;99589.22;7308379;19;133232;-38
2022/12/04 02:06:56;;;;;;;40.67;8.95;;;;;;;21.62;59.10;99584.81;7309369;19;129156;-36
2022/12/04 02:09:22;;;;;;;34.53;8.30;;;;;;;21.65;58.50;99574.06;7313833;19;128979;-36
2022/12/04 02:12:27;;;;;;;46.13;8.60;;;;;;;21.65;58.55;99571.44;7316555;19;130188;-37
2022/12/04 02:15:09;;;;;;;40.10;8.15;;;;;;;21.68;59.14;99584.22;7312623;19;130485;-35
2022/12/04 02:17:40;;;;;;;34.75;8.63;;;;;;;21.65;58.70;99579.28;7313641;19;129036;-38
2022/12/04 02:20:28;;;;;;;40.35;8.75;;;;;;;21.58;58.81;99570.38;7316469;19;129567;-37
2022/12/04 02:23:15;;;;;;;53.60;9.38;;;;;;;21.60;59.09;99581.50;7315824;19;129898;-37
2022/12/04 02:26:10;;;;;;;42.27;8.77;;;;;;;21.54;59.68;99576.00;7316345;19;130373;-36
2022/12/04 02:28:41;;;;;;;41.92;9.15;;;;;;;21.48;59.12;99572.19;7313686;19;129008;-36
2022/12/04 02:31:12;;;;;;;35.45;8.55;;;;;;;21.47;59.56;99575.72;7316689;19;129414;-36
2022/12/04 02:33:47;;;;;;;44.15;8.95;;;;;;;21.42;59.73;99571.91;7314336;19;129734;-36
2022/12/04 02:36:19;;;;;;;43.72;8.73;;;;;;;21.41;59.87;99575.47;7314503;19;130022;-36
2022/12/04 02:39:03;;;;;;;61.97;10.95;;;;;;;21.30;59.78;99573.84;7313143;19;129895;-35
2022/12/04 02:41:38;;;;;;;37.60;7.78;;;;;;;21.29;59.57;99576.56;7315833;19;129352;-37
2022/12/04 02:44:10;;;;;;;37.22;8.13;;;;;;;21.26;60.55;99575.06;7315667;19;130214;-34
2022/12/04 02:46:40;;;;;;;37.35;8.32;;;;;;;21.23;59.97;99570.13;7314821;19;129260;-36
2022/12/04 02:49:10;;;;;;;34.10;8.30;;;;;;;21.19;60.48;99565.31;7314209;19;129692;-34
2022/12/04 02:51:39;;;;;;;36.83;8.55;;;;;;;21.18;60.31;99572.31;7313478;19;129157;-36
2022/12/04 02:54:12;;;;;;;34.15;8.68;;;;;;;21.15;60.19;99572.59;7315111;19;129414;-34
2022/12/04 02:56:44;;;;;;;39.78;9.02;;;;;;;21.16;60.28;99581.25;7312391;19;130773;-38
2022/12/04 02:59:16;;;;;;;49.17;9.43;;;;;;;21.16;60.19;99571.63;7315972;19;128985;-35
2022/12/04 03:01:47;;;;;;;33.45;8.52;;;;;;;21.16;60.10;99566.41;7314590;19;128795;-36
2022/12/04 03:04:18;;;;;;;18.33;7.50;;;;;;;21.24;60.21;99568.31;7315304;19;130229;-36
2022/12/04 03:06:49;;;;;;;43.35;9.10;;;;;;;21.32;60.36;99569.28;7314030;19;129404;-34
2022/12/04 03:09:20;;;;;;;38.63;9.00;;;;;;;21.38;60.20;99566.13;7312011;19;129215;-36
2022/12/04 03:11:53;;;;;;;34.47;8.27;;;;;;;21.45;59.72;99555.94;7315708;19;128819;-36
2022/12/04 03:14:26;;;;;;;26.45;7.80;;;;;;;21.58;58.90;99562.53;7316165;19;130079;-36
2022/12/04 03:16:59;;;;;;;41.08;8.68;;;;;;;21.70;59.17;99566.59;7314066;19;130349;-36
2022/12/04 03:19:38;;;;;;;28.95;7.75;;;;;;;21.67;59.36;99552.97;7312039;19;129102;-34
2022/12/04 03:22:11;;;;;;;19.75;7.05;;;;;;;21.70;58.74;99555.34;7314151;19;129344;-35
2022/12/04 03:24:44;;;;;;;35.13;8.70;;;;;;;21.70;58.62;99560.56;7314396;19;129335;-33
2022/12/04 03:27:13;;;;;;;47.50;9.10;;;;;;;21.69;58.61;99564.97;7314433;19;129693;-37
2022/12/04 03:30:18;;;;;;;39.83;8.38;;;;;;;21.62;58.99;99553.41;7313189;19;129965;-34
2022/12/04 03:32:56;;;;;;;31.10;8.20;;;;;;;21.59;59.39;99558.94;7309155;19;129705;-34
2022/12/04 03:35:33;;;;;;;49.78;9.23;;;;;;;21.55;59.31;99552.31;7310974;19;129549;-35
2022/12/04 03:38:11;;;;;;;63.25;10.05;;;;;;;21.57;59.50;99558.25;7308544;19;129438;-36
2022/12/04 03:40:38;;;;;;;;;;;;;;;21.63;59.17;99555.09;7312620;19;129302;-37
2022/12/04 03:43:28;;;;;;;34.30;8.68;;;;;;;21.74;58.83;99556.69;7313536;19;130682;-33
2022/12/04 03:46:14;;;;;;;46.38;8.90;;;;;;;21.88;58.28;99561.53;7312644;19;129644;-33
2022/12/04 03:48:46;;;;;;;31.52;8.65;;;;;;;21.98;58.63;99561.50;7310615;19;131095;-34
2022/12/04 03:51:37;;;;;;;47.20;9.38;;;;;;;22.05;57.93;99562.56;7313707;19;129031;-35
2022/12/04 03:54:10;;;;;;;56.80;9.95;;;;;;;22.10;58.05;99568.22;7313290;19;129238;-35
2022/12/04 03:56:45;;;;;;;35.03;7.97;;;;;;;22.12;57.36;99572.31;7313569;19;130994;-33
2022/12/04 03:59:16;;;;;;;39.58;8.50;;;;;;;22.20;57.25;99579.44;7312624;19;129953;-37
2022/12/04 04:01:47;;;;;;;31.10;7.88;;;;;;;22.20;57.37;99575.03;7315659;19;128878;-35
2022/12/04 04:04:18;;;;;;;39.83;8.85;;;;;;;22.20;57.63;99574.19;7315646;19;129277;-35
2022/12/04 04:06:52;;;;;;;38.45;8.35;;;;;;;22.15;57.99;99569.41;7311478;19;130575;-36
2022/12/04 04:09:23;;;;;;;34.70;8.23;;;;;;;22.09;57.56;99569.16;7310283;19;129770;-33
2022/12/04 04:12:06;;;;;;;50.13;8.52;;;;;;;22.03;57.79;99564.50;7310687;19;129819;-37
2022/12/04 04:26:03;;;;;;;56.35;10.18;;;;;;;21.66;59.12;99562.66;7312792;19;129196;-39
2022/12/04 04:28:36;;;;;;;36.50;8.52;;;;;;;21.57;58.87;99554.78;7310376;19;130295;-37
2022/12/04 04:31:11;;;;;;;35.75;8.57;;;;;;;21.65;59.28;99571.44;7312651;19;129430;-36
2022/12/04 04:34:01;;;;;;;34.00;8.05;;;;;;;21.57;58.90;99570.47;7311854;19;129168;-36
2022/12/04 04:36:52;;;;;;;40.30;8.90;;;;;;;21.49;59.88;99568.59;7310338;19;129598;-34
2022/12/04 04:39:32;;;;;;;34.20;8.25;;;;;;;21.46;59.52;99573.25;7312733;19;129637;-34
2022/12/04 04:42:03;;;;;;;48.97;9.70;;;;;;;21.42;60.34;99569.28;7310942;19;129690;-34
2022/12/04 04:44:41;;;;;;;41.20;9.27;;;;;;;21.26;59.82;99554.16;7311977;19;130151;-33
2022/12/04 04:47:11;;;;;;;49.33;9.55;;;;;;;21.32;60.12;99563.25;7311248;19;129421;-38
2022/12/04 04:49:39;;;;;;;39.03;9.20;;;;;;;21.30;59.86;99562.53;7309950;19;129058;-35
2022/12/04 04:52:05;;;;;;;33.15;8.38;;;;;;;21.28;60.61;99560.06;7311406;19;129493;-37
2022/12/04 04:54:34;;;;;;;25.80;8.00;;;;;;;21.23;60.69;99567.50;7312625;19;129089;-39
2022/12/04 04:56:59;;;;;;;42.95;8.95;;;;;;;21.21;59.99;99572.03;7311436;19;129478;-34
2022/12/04 04:59:25;;;;;;;47.15;9.15;;;;;;;21.20;60.42;99562.56;7309866;19;130368;-35
2022/12/04 05:01:50;;;;;;;50.87;10.00;;;;;;;21.17;60.58;99568.03;7309790;19;130242;-35
2022/12/04 05:04:18;;;;;;;27.17;7.95;;;;;;;21.16;60.11;99548.09;7309530;19;129341;-36
2022/12/04 05:06:44;;;;;;;34.75;9.07;;;;;;;21.16;60.61;99566.41;7310516;19;129490;-35
2022/12/04 05:09:09;;;;;;;53.53;9.80;;;;;;;21.15;60.78;99562.13;7308421;19;131007;-37
2022/12/04 05:11:34;;;;;;;45.58;9.77;;;;;;;21.14;60.96;99563.09;7309922;19;129227;-39
2022/12/04 05:14:00;;;;;;;28.63;8.07;;;;;;;21.15;60.39;99564.75;7311381;19;129282;-34
2022/12/04 05:16:25;;;;;;;26.47;8.23;;;;;;;21.12;60.39;99559.78;7309593;19;129116;-37
2022/12/04 05:21:34;;;;;;;45.42;9.25;;;;;;;21.12;60.44;99564.19;7310370;19;129566;-40
2022/12/04 05:24:00;;;;;;;22.48;7.97;;;;;;;21.11;60.44;99558.13;7311674;19;129104;-39
2022/12/04 05:26:25;;;;;;;31.85;8.95;;;;;;;21.12;61.03;99558.97;7309973;19;128971;-36
2022/12/04 05:28:51;;;;;;;42.90;9.40;;;;;;;21.14;61.02;99562.28;7308118;19;129085;-36
2022/12/04 05:31:16;;;;;;;40.40;8.60;;;;;;;21.12;60.50;99551.94;7308483;19;129316;-37
2022/12/04 05:33:41;;;;;;;31.60;8.25;;;;;;;21.14;60.19;99552.63;7310725;19;130350;-33
2022/12/04 05:36:09;;;;;;;56.38;10.77;;;;;;;21.14;60.16;99557.84;7307732;19;129240;-37
2022/12/04 05:38:35;;;;;;;42.67;9.10;;;;;;;21.17;60.11;99554.97;7307527;19;129859;-41
2022/12/04 05:41:03;;;;;;;39.28;8.65;;;;;;;21.19;60.20;99560.88;7309774;19;129995;-35
2022/12/04 05:43:29;;;;;;;21.80;7.53;;;;;;;21.20;60.69;99549.47;7312511;19;129198;-35
2022/12/04 05:45:58;;;;;;;59.27;10.50;;;;;;;21.24;59.91;99545.59;7315142;19;129471;-35
2022/12/04 05:48:24;;;;;;;36.05;9.07;;;;;;;21.27;60.24;99547.94;7316139;19;130534;-33
2022/12/04 05:50:49;;;;;;;54.28;9.68;;;;;;;21.29;59.97;99539.97;7317081;19;130597;-37
2022/12/04 05:53:14;;;;;;;21.53;7.90;;;;;;;21.31;59.89;99546.72;7318485;19;129762;-37
2022/12/04 05:55:40;;;;;;;35.08;8.55;;;;;;;21.34;59.86;99538.59;7317042;19;129419;-34
2022/12/04 05:58:05;;;;;;;40.85;8.57;;;;;;;21.40;59.67;99543.25;7313701;19;129600;-35
2022/12/04 06:00:31;;;;;;;35.28;8.30;;;;;;;21.43;60.01;99545.59;7318052;19;129668;-36
2022/12/04 06:02:56;;;;;;;12.98;7.38;;;;;;;21.45;59.29;99538.41;7317675;19;128948;-34
2022/12/04 06:05:21;;;;;;;43.05;8.93;;;;;;;21.47;59.57;99533.88;7315416;19;129050;-37
2022/12/04 06:07:47;;;;;;;50.85;9.80;;;;;;;21.50;59.37;99523.13;7315381;19;129469;-39
2022/12/04 06:10:12;;;;;;;20.53;7.53;;;;;;;21.55;59.36;99523.53;7316232;19;129609;-35
2022/12/04 06:12:37;;;;;;;32.47;8.50;;;;;;;21.48;59.35;99511.19;7317695;19;129212;-34
2022/12/04 06:15:04;;;;;;;36.22;9.55;;;;;;;21.62;59.49;99532.47;7316197;19;129199;-38
2022/12/04 06:17:29;;;;;;;37.13;9.23;;;;;;;21.61;58.95;99541.31;7313093;19;129635;-38
2022/12/04 06:19:54;;;;;;;29.77;8.25;;;;;;;21.61;59.37;99543.09;7317703;19;129060;-36
2022/12/04 06:22:20;;;;;;;36.78;8.75;;;;;;;21.59;59.37;99538.00;7314785;19;130846;-35
2022/12/04 06:24:46;;;;;;;29.67;8.63;;;;;;;21.59;59.47;99532.78;7317067;19;129398;-35
2022/12/04 06:27:11;;;;;;;46.42;9.38;;;;;;;21.58;58.96;99536.38;7313917;19;129363;-36
2022/12/04 06:29:37;;;;;;;18.75;8.15;;;;;;;21.45;59.30;99514.88;7313763;19;129577;-35
2022/12/04 06:32:02;;;;;;;31.63;8.20;;;;;;;21.55;59.10;99536.63;7316206;19;130904;-36
2022/12/04 06:34:28;;;;;;;36.72;8.60;;;;;;;21.42;59.67;99520.41;7316778;19;129030;-38
2022/12/04 06:36:53;;;;;;;37.25;8.88;;;;;;;21.54;59.81;99536.75;7315618;19;130219;-36
2022/12/04 06:39:19;;;;;;;35.85;8.68;;;;;;;21.49;59.25;99547.66;7315917;19;131121;-36
2022/12/04 06:41:46;;;;;;;29.20;8.07;;;;;;;21.46;59.21;99537.47;7316197;19;129365;-33
2022/12/04 06:44:12;;;;;;;;;;;;;;;21.44;59.46;99541.19;7316643;19;128908;-33
2022/12/04 06:46:37;;;;;;;35.45;8.25;;;;;;;21.43;59.94;99548.22;7315190;19;129373;-35
2022/12/04 06:49:03;;;;;;;31.60;7.97;;;;;;;21.43;59.84;99555.25;7311897;19;129771;-39
2022/12/04 06:51:31;;;;;;;30.35;8.18;;;;;;;21.42;59.36;99554.41;7316707;19;129013;-38
2022/12/04 06:53:57;;;;;;;35.90;7.88;;;;;;;21.40;60.10;99553.72;7315512;19;128874;-35
2022/12/04 06:56:25;;;;;;;44.83;9.90;;;;;;;21.38;59.64;99562.66;7312322;19;129467;-35
2022/12/04 06:58:53;;;;;;;34.85;8.45;;;;;;;21.36;60.04;99557.59;7311929;19;129733;-38
2022/12/04 07:01:22;;;;;;;41.83;8.85;;;;;;;21.37;59.87;99564.44;7314267;19;131063;-35
2022/12/04 07:03:48;;;;;;;45.85;9.07;;;;;;;21.37;59.99;99564.44;7313531;19;130161;-36
2022/12/04 07:06:15;;;;;;;39.88;8.60;;;;;;;21.37;60.42;99563.66;7315496;19;129150;-33
2022/12/04 07:08:42;;;;;;;;;;;;;;;21.34;59.67;99563.91;7313528;19;130647;-36
2022/12/04 07:11:07;;;;;;;31.30;8.30;;;;;;;21.34;59.67;99559.50;7315434;19;129739;-34
2022/12/04 07:13:33;;;;;;;45.35;9.32;;;;;;;21.33;60.17;99563.09;7313280;19;129655;-38
2022/12/04 07:16:00;;;;;;;48.92;10.15;;;;;;;21.23;60.03;99546.59;7314494;19;129502;-37
2022/12/04 07:18:26;;;;;;;37.33;9.23;;;;;;;21.30;59.81;99552.09;7308899;19;130170;-37
2022/12/04 07:20:51;;;;;;;32.63;8.30;;;;;;;21.30;60.42;99563.38;7311124;19;129655;-37
2022/12/04 07:23:16;;;;;;;64.53;10.98;;;;;;;21.28;59.83;99559.25;7313087;19;129438;-36
2022/12/04 07:25:42;;;;;;;47.63;9.63;;;;;;;21.26;60.32;99550.69;7314262;19;129045;-35
2022/12/04 07:28:07;;;;;;;36.13;8.43;;;;;;;21.25;59.93;99560.34;7311106;19;129780;-32
2022/12/04 07:30:32;;;;;;;27.87;7.97;;;;;;;21.25;60.21;99557.75;7314143;19;129110;-35
2022/12/04 07:32:58;;;;;;;52.65;9.23;;;;;;;21.25;60.20;99560.34;7313627;19;128977;-36
2022/12/04 07:35:23;;;;;;;32.87;8.50;;;;;;;21.23;60.21;99567.50;7313637;19;129675;-35
2022/12/04 07:37:48;;;;;;;34.77;8.50;;;;;;;21.24;60.29;99563.91;7310281;19;130084;-35
2022/12/04 07:40:14;;;;;;;18.42;7.35;;;;;;;21.16;60.47;99555.09;7313688;19;128942;-38
2022/12/04 07:42:39;;;;;;;55.25;10.30;;;;;;;21.21;60.07;99569.41;7312955;19;129070;-33
2022/12/04 07:45:05;;;;;;;30.67;8.33;;;;;;;21.11;60.52;99552.91;7312474;19;129950;-36
2022/12/04 07:47:30;;;;;;;40.47;9.10;;;;;;;21.21;60.12;99563.34;7303749;19;130470;-37
2022/12/04 07:49:55;;;;;;;38.83;8.73;;;;;;;21.22;60.24;99560.59;7308018;19;129149;-36
2022/12/04 07:52:21;;;;;;;41.33;9.30;;;;;;;21.22;60.63;99557.19;7312313;19;129084;-35
2022/12/04 07:54:46;;;;;;;46.57;9.30;;;;;;;21.22;60.28;99550.16;7313373;19;129533;-38
2022/12/04 07:57:11;;;;;;;33.73;8.80;;;;;;;21.22;59.97;99555.38;7306226;19;129921;-36
2022/12/04 07:59:37;;;;;;;46.43;9.67;;;;;;;21.17;60.70;99547.13;7308522;19;129132;-36
2022/12/04 08:02:05;;;;;;;61.38;10.15;;;;;;;21.20;60.50;99546.88;7312767;19;130003;-39
2022/12/04 08:04:30;;;;;;;36.10;8.85;;;;;;;21.23;60.11;99561.44;7310416;19;130953;-35
2022/12/04 08:06:55;;;;;;;26.52;7.82;;;;;;;21.20;60.18;99557.31;7307635;19;129450;-34
2022/12/04 08:09:21;;;;;;;43.72;9.15;;;;;;;21.22;60.06;99563.22;7305713;19;129142;-37
2022/12/04 08:11:46;;;;;;;41.53;9.68;;;;;;;21.23;60.52;99564.06;7309560;19;130682;-36
2022/12/04 08:14:12;;;;;;;51.80;9.73;;;;;;;21.19;60.63;99557.47;7312583;19;130404;-34
2022/12/04 08:16:37;;;;;;;33.78;9.05;;;;;;;21.21;60.32;99556.34;7311998;19;130099;-34
2022/12/04 08:19:04;;;;;;;44.85;9.68;;;;;;;21.20;60.15;99554.72;7310646;19;129471;-35
2022/12/04 08:21:31;;;;;;;33.70;9.20;;;;;;;21.21;60.48;99548.50;7311847;19;128857;-37
2022/12/04 08:23:57;;;;;;;;;;;;;;;21.21;60.66;99568.59;7314007;19;129802;-35
2022/12/04 08:26:24;;;;;;;33.70;7.70;;;;;;;21.25;60.65;99559.53;7309233;19;130981;-35
2022/12/04 08:28:54;;;;;;;53.35;10.30;;;;;;;21.26;60.60;99551.53;7306482;19;130216;-34
2022/12/04 08:31:22;;;;;;;48.47;9.88;;;;;;;21.26;60.24;99556.75;7311321;19;129175;-37
2022/12/04 08:33:49;;;;;;;30.77;8.20;;;;;;;21.27;59.85;99558.41;7310538;19;130680;-39
2022/12/04 08:36:18;;;;;;;37.78;8.63;;;;;;;21.30;60.11;99559.94;7311652;19;129178;-34
2022/12/04 08:38:43;;;;;;;43.85;9.10;;;;;;;21.31;60.20;99554.56;7309490;19;129074;-36
2022/12/04 08:41:13;;;;;;;41.92;9.25;;;;;;;21.34;60.14;99563.91;7312056;19;130996;-37
2022/12/04 08:43:38;;;;;;;38.95;9.27;;;;;;;21.36;60.18;99567.22;7311265;19;130075;-40
2022/12/04 08:46:07;;;;;;;36.38;8.32;;;;;;;21.37;59.82;99561.84;7311140;19;129884;-35
2022/12/04 08:48:32;;;;;;;41.85;9.20;;;;;;;21.37;59.55;99561.03;7309358;19;129414;-38
2022/12/04 08:50:58;;;;;;;51.45;9.63;;;;;;;21.37;59.42;99559.22;7312370;19;128909;-35
2022/12/04 08:53:23;;;;;;;29.73;8.55;;;;;;;21.40;59.76;99561.56;7311079;19;129661;-34
2022/12/04 08:55:49;;;;;;;23.75;7.75;;;;;;;21.38;59.72;99566.13;7310216;19;129012;-36
2022/12/04 08:58:15;;;;;;;62.20;10.20;;;;;;;21.34;59.91;99563.91;7305601;19;131583;-36
2022/12/04 09:00:41;;;;;;;57.27;10.30;;;;;;;21.35;60.38;99571.63;7308254;19;129226;-40
2022/12/04 09:03:11;;;;;;;45.95;9.45;;;;;;;21.26;60.07;99554.16;7307517;19;130253;-39
2022/12/04 09:05:37;;;;;;;63.30;10.57;;;;;;;21.37;60.14;99553.19;7306181;19;129665;-38
2022/12/04 09:08:02;;;;;;;42.83;9.50;;;;;;;21.37;59.78;99558.41;7303650;19;129064;-33
2022/12/04 09:10:27;;;;;;;38.08;8.38;;;;;;;21.33;59.90;99557.03;7309295;19;130764;-36
2022/12/04 09:12:53;;;;;;;46.67;9.77;;;;;;;21.37;59.24;99551.38;7308292;19;129548;-38
2022/12/04 09:15:18;;;;;;;33.08;8.75;;;;;;;21.38;59.06;99554.81;7311364;19;129091;-33
2022/12/04 09:17:43;;;;;;;57.45;10.90;;;;;;;21.38;59.08;99552.22;7306019;19;129689;-35
2022/12/04 09:20:09;;;;;;;70.82;12.32;;;;;;;21.39;59.26;99546.84;7310950;19;131660;-37
2022/12/04 09:22:35;;;;;;;16.65;8.43;;;;;;;21.39;59.22;99543.38;7309286;19;129334;-38
2022/12/04 09:25:02;;;;;;;45.23;10.37;;;;;;;21.39;59.26;99548.63;7311324;19;129686;-35
2022/12/04 09:27:27;;;;;;;47.47;9.43;;;;;;;21.38;59.09;99546.97;7308676;19;130298;-37
2022/12/04 09:29:53;;;;;;;46.03;9.70;;;;;;;21.39;58.87;99541.59;7309799;19;129176;-38
2022/12/04 09:32:18;;;;;;;31.80;9.80;;;;;;;21.32;58.91;99535.28;7309364;19;129784;-33
2022/12/04 09:34:46;;;;;;;46.47;10.35;;;;;;;21.31;59.05;99528.41;7311015;19;130413;-35
2022/12/04 09:37:12;;;;;;;60.80;11.13;;;;;;;21.44;58.70;99542.03;7309118;19;129803;-38
2022/12/04 09:39:37;;;;;;;43.90;9.43;;;;;;;21.44;59.51;99539.41;7310727;19;129166;-36
2022/12/04 09:42:05;;;;;;;39.03;9.80;;;;;;;21.42;59.73;99541.31;7307149;19;129907;-37
2022/12/04 09:44:42;;;;;;;29.48;8.85;;;;;;;21.37;59.55;99543.53;7305558;19;130379;-36
2022/12/04 09:47:21;;;;;;;44.92;9.82;;;;;;;21.37;59.46;99540.13;7307584;19;129412;-39
2022/12/04 09:49:52;;;;;;;43.38;9.85;;;;;;;21.37;59.29;99543.53;7308030;19;130965;-35
2022/12/04 09:52:26;;;;;;;60.92;11.20;;;;;;;21.37;59.71;99548.75;7307710;19;129188;-38
2022/12/04 09:54:52;;;;;;;32.33;9.15;;;;;;;21.34;60.03;99546.44;7309619;19;130481;-35
2022/12/04 09:57:28;;;;;;;40.25;9.60;;;;;;;21.30;60.05;99547.69;7308754;19;129114;-35
2022/12/04 09:59:54;;;;;;;40.60;9.10;;;;;;;21.31;60.31;99538.88;7307570;19;130057;-41
2022/12/04 10:02:37;;;;;;;46.08;9.57;;;;;;;21.31;59.68;99544.09;7307127;19;130292;-35
2022/12/04 10:05:04;;;;;;;54.58;10.40;;;;;;;21.20;60.00;99520.72;7309490;19;130535;-37
2022/12/04 10:08:15;;;;;;;27.55;8.40;;;;;;;21.33;60.27;99539.56;7308802;19;129591;-35
2022/12/04 10:10:46;;;;;;;53.65;10.27;;;;;;;21.34;59.76;99537.75;7302871;19;129306;-36
2022/12/04 10:13:14;;;;;;;41.05;9.15;;;;;;;21.32;60.01;99543.13;7309769;19;132559;-36
2022/12/04 10:16:09;;;;;;;26.25;8.63;;;;;;;21.33;59.78;99533.50;7309273;19;132008;-35
2022/12/04 10:19:07;;;;;;;30.85;7.93;;;;;;;21.34;60.04;99528.13;7307924;19;129075;-39
2022/12/04 10:21:42;;;;;;;;;;;;;;;21.35;59.97;99524.56;7310373;19;129140;-38
2022/12/04 10:24:23;;;;;;;33.25;9.07;;;;;;;21.36;59.93;99523.59;7309816;19;130444;-36
2022/12/04 10:26:51;;;;;;;33.28;8.35;;;;;;;21.28;60.11;99501.72;7309520;19;129347;-35
2022/12/04 10:29:34;;;;;;;30.77;8.25;;;;;;;21.33;60.13;99526.50;7310403;19;130139;-34
2022/12/04 10:32:22;;;;;;;51.13;9.90;;;;;;;21.32;59.88;99524.81;7310058;19;130637;-37
2022/12/04 10:34:51;;;;;;;31.05;8.45;;;;;;;21.32;60.23;99529.25;7315289;19;130691;-38
2022/12/04 10:37:16;;;;;;;47.72;9.48;;;;;;;21.31;60.39;99528.41;7314071;19;129599;-36
2022/12/04 10:39:49;;;;;;;40.17;9.15;;;;;;;21.29;60.07;99530.34;7312537;19;129732;-37
2022/12/04 10:42:18;;;;;;;41.85;8.98;;;;;;;21.27;60.77;99519.19;7315409;19;129149;-34
2022/12/04 10:44:43;;;;;;;43.83;9.52;;;;;;;21.26;60.63;99517.53;7314980;19;129871;-35
2022/12/04 10:47:12;;;;;;;49.00;9.75;;;;;;;21.27;60.16;99511.34;7308902;19;130316;-35
2022/12/04 10:49:38;;;;;;;41.90;8.90;;;;;;;21.29;60.29;99511.19;7310598;19;129701;-36
2022/12/04 10:52:05;;;;;;;33.55;7.78;;;;;;;21.29;60.44;99509.41;7315484;19;129139;-35
2022/12/04 10:54:47;;;;;;;78.75;11.27;;;;;;;21.30;60.82;99511.09;7300909;19;130656;-38
2022/12/04 10:57:13;;;;;;;46.75;9.70;;;;;;;21.29;60.49;99512.03;7304869;19;130634;-39
2022/12/04 10:59:53;;;;;;;78.43;11.50;;;;;;;21.31;60.55;99511.88;7305024;19;130589;-38
2022/12/04 11:02:21;;;;;;;40.83;8.88;;;;;;;21.34;60.06;99504.59;7313835;19;129275;-37
2022/12/04 11:04:59;;;;;;;56.13;10.48;;;;;;;21.36;58.78;99500.06;7313126;19;129446;-37
2022/12/04 11:07:36;;;;;;;39.58;10.55;;;;;;;21.35;57.69;99508.88;7312535;19;130251;-38
2022/12/04 11:10:06;;;;;;;43.83;12.40;;;;;;;21.33;57.41;99508.19;7307788;19;129116;-35
2022/12/04 11:12:32;;;;;;;44.38;11.63;;;;;;;21.31;56.90;99502.25;7310607;19;129156;-36
2022/12/04 11:15:02;;;;;;;59.90;13.18;;;;;;;21.19;57.42;99492.09;7309887;19;130392;-35
2022/12/04 11:17:27;;;;;;;55.65;13.88;;;;;;;21.22;57.00;99502.28;7307695;19;129227;-38
2022/12/04 11:20:03;;;;;;;53.58;12.98;;;;;;;21.25;58.08;99509.84;7314181;19;129158;-34
2022/12/04 11:22:29;;;;;;;32.60;11.50;;;;;;;21.28;58.26;99515.63;7313030;19;128902;-34
2022/12/04 11:24:57;;;;;;;60.22;14.30;;;;;;;21.25;58.46;99513.28;7313824;19;129159;-35
2022/12/04 11:27:30;;;;;;;50.25;12.95;;;;;;;21.34;58.13;99514.22;7312586;19;130504;-36
2022/12/04 11:29:59;;;;;;;54.28;13.70;;;;;;;21.45;56.57;99514.88;7312484;19;129095;-39
2022/12/04 11:32:29;;;;;;;45.80;13.13;;;;;;;21.34;56.82;99501.97;7313285;19;129652;-36
2022/12/04 11:34:59;;;;;;;40.28;12.98;;;;;;;21.23;56.62;99488.22;7309028;19;130977;-35
2022/12/04 11:37:30;;;;;;;45.45;13.18;;;;;;;21.34;55.81;99501.97;7310826;19;129937;-34
2022/12/04 11:39:56;;;;;;;57.55;14.35;;;;;;;21.34;56.16;99507.22;7311999;19;131509;-37
2022/12/04 11:42:29;;;;;;;57.97;15.55;;;;;;;21.31;56.46;99502.25;7312369;19;129720;-34